Time;durP1;ratioP1;P1;durP2;ratioP2;P2;SDS_P1;SDS_P2;PMS_P1;PMS_P2;Temp;Humidity;BMP_temperature;BMP_pressure;BME280_temperature;BME280_humidity;BME280_pressure;Samples;Min_cycle;Max_cycle;Signal;HPM_P1;HPM_P2
2023/01/20 00:09:05;;;;;;;2.70;0.75;;;0.70;99.90;;;;;;6277585;22;20510;-93
2023/01/20 00:11:31;;;;;;;0.88;0.45;;;0.70;99.90;;;;;;6225232;22;20019;-96
2023/01/20 00:13:59;;;;;;;3.25;0.73;;;0.70;99.90;;;;;;6225311;22;20054;-93
2023/01/20 00:16:26;;;;;;;0.90;0.47;;;0.70;99.90;;;;;;6226715;22;20020;-87
2023/01/20 00:18:53;;;;;;;2.35;0.73;;;0.70;99.90;;;;;;6226494;22;20027;-95
2023/01/20 00:21:42;;;;;;;2.10;0.80;;;0.70;99.90;;;;;;6227188;22;20016;-86
2023/01/20 00:24:08;;;;;;;1.55;0.57;;;0.70;99.90;;;;;;6251883;22;20023;-87
2023/01/20 00:26:34;;;;;;;2.13;0.70;;;0.70;99.90;;;;;;6226374;22;20008;-96
2023/01/20 00:28:59;;;;;;;1.60;0.73;;;0.70;99.90;;;;;;6177653;22;20344;-94
2023/01/20 00:31:27;;;;;;;2.00;0.70;;;0.70;99.90;;;;;;6254150;22;20043;-87
2023/01/20 00:33:55;;;;;;;4.53;0.82;;;0.70;99.90;;;;;;6254010;22;20037;-88
2023/01/20 00:36:22;;;;;;;2.80;1.05;;;0.60;99.90;;;;;;6228766;22;20027;-87
2023/01/20 00:38:48;;;;;;;;;;;0.70;99.90;;;;;;6279901;22;20445;-88
2023/01/20 00:41:14;;;;;;;2.60;1.00;;;0.60;99.90;;;;;;6227246;22;19915;-89
2023/01/20 00:43:40;;;;;;;2.13;0.85;;;0.60;99.90;;;;;;6278582;22;20077;-91
2023/01/20 00:46:06;;;;;;;2.25;0.80;;;0.60;99.90;;;;;;6251404;22;20016;-94
2023/01/20 00:48:33;;;;;;;4.70;1.10;;;0.60;99.90;;;;;;6276962;22;20083;-93
2023/01/20 00:50:59;;;;;;;1.83;0.80;;;0.60;99.90;;;;;;6251088;22;20015;-87
2023/01/20 00:53:25;;;;;;;3.45;1.02;;;0.60;99.90;;;;;;6278300;22;20015;-91
2023/01/20 00:55:50;;;;;;;2.13;0.80;;;0.60;99.90;;;;;;6251610;22;20016;-95
2023/01/20 00:58:16;;;;;;;2.97;0.80;;;0.50;99.90;;;;;;6251666;22;20015;-93
2023/01/20 01:00:42;;;;;;;1.95;0.73;;;0.50;99.90;;;;;;6251222;22;20046;-92
2023/01/20 01:03:09;;;;;;;4.38;1.02;;;0.50;99.90;;;;;;6225779;22;20090;-96
2023/01/20 01:05:35;;;;;;;2.65;0.95;;;0.50;99.90;;;;;;6226213;22;20061;-95
2023/01/20 01:08:01;;;;;;;2.70;1.03;;;0.50;99.90;;;;;;6251330;22;20047;-89
2023/01/20 01:10:26;;;;;;;3.00;1.07;;;0.50;99.90;;;;;;6226257;22;20449;-94
2023/01/20 01:12:52;;;;;;;3.05;1.00;;;0.40;99.90;;;;;;6225709;22;20090;-89
2023/01/20 01:15:18;;;;;;;4.83;1.50;;;0.50;99.90;;;;;;6175819;22;20453;-90
2023/01/20 01:17:44;;;;;;;5.03;1.80;;;0.50;99.90;;;;;;6225841;22;20023;-94
2023/01/20 01:20:11;;;;;;;4.50;1.70;;;0.40;99.90;;;;;;6225826;22;20015;-96
2023/01/20 01:22:36;;;;;;;4.50;1.58;;;0.40;99.90;;;;;;6200660;22;20026;-89
2023/01/20 01:25:03;;;;;;;4.97;2.03;;;0.40;99.90;;;;;;6225544;22;20020;-91
2023/01/20 01:27:28;;;;;;;7.60;2.13;;;0.40;99.90;;;;;;6200582;22;20027;-90
2023/01/20 01:29:54;;;;;;;5.43;2.00;;;0.40;99.90;;;;;;6250864;22;20247;-88
2023/01/20 01:32:21;;;;;;;7.90;2.30;;;0.40;99.90;;;;;;6226027;22;20384;-93
2023/01/20 01:34:46;;;;;;;7.47;2.40;;;0.40;99.90;;;;;;6200697;22;20440;-90
2023/01/20 01:37:12;;;;;;;6.45;2.35;;;0.50;99.90;;;;;;6250955;22;20058;-94
2023/01/20 01:39:38;;;;;;;7.70;2.97;;;0.50;99.90;;;;;;6200606;22;20094;-87
2023/01/20 01:42:13;;;;;;;7.38;3.05;;;0.40;99.90;;;;;;6250689;22;20400;-86
2023/01/20 01:45:11;;;;;;;10.18;3.08;;;0.50;99.90;;;;;;6250918;22;20019;-85
2023/01/20 01:48:04;;;;;;;7.13;3.08;;;0.50;99.90;;;;;;6250420;22;20453;-93
2023/01/20 01:50:32;;;;;;;7.25;2.80;;;0.50;99.90;;;;;;6225083;22;20437;-86
2023/01/20 01:52:58;;;;;;;8.10;3.08;;;0.50;99.90;;;;;;6250643;22;20019;-87
2023/01/20 01:55:31;;;;;;;7.10;3.22;;;0.50;99.90;;;;;;6225269;22;20094;-86
2023/01/20 01:58:00;;;;;;;8.57;3.53;;;0.50;99.90;;;;;;6250571;22;20015;-94
2023/01/20 02:00:26;;;;;;;9.70;3.65;;;0.50;99.90;;;;;;6250466;22;20047;-88
2023/01/20 02:02:53;;;;;;;10.13;3.80;;;0.50;99.90;;;;;;6276026;22;20023;-96
2023/01/20 02:05:19;;;;;;;8.07;3.50;;;0.50;99.90;;;;;;6250354;22;20257;-87
2023/01/20 02:07:47;;;;;;;9.40;3.60;;;0.40;99.90;;;;;;6250240;22;20020;-93
2023/01/20 02:10:14;;;;;;;7.45;3.38;;;0.50;99.90;;;;;;6275988;22;20016;-90
2023/01/20 02:12:43;;;;;;;9.15;3.42;;;0.50;99.90;;;;;;6250425;22;20027;-93
2023/01/20 02:15:27;;;;;;;8.88;3.55;;;0.50;99.90;;;;;;6275838;22;20389;-86
2023/01/20 02:18:04;;;;;;;8.55;3.65;;;0.40;99.90;;;;;;6275941;22;20012;-85
2023/01/20 02:21:08;;;;;;;9.15;3.00;;;0.40;99.90;;;;;;6250417;22;20077;-83
2023/01/20 02:23:51;;;;;;;8.80;3.47;;;0.40;99.90;;;;;;6277457;22;20025;-85
2023/01/20 02:26:44;;;;;;;7.82;3.40;;;0.40;99.90;;;;;;6250661;22;20031;-90
2023/01/20 02:29:23;;;;;;;7.35;2.70;;;0.40;99.90;;;;;;6277454;22;20467;-87
2023/01/20 02:32:30;;;;;;;6.15;2.90;;;0.40;99.90;;;;;;6277422;22;20015;-85
2023/01/20 02:35:33;;;;;;;6.35;2.67;;;0.30;99.90;;;;;;6224650;22;20452;-88
2023/01/20 02:38:19;;;;;;;6.45;2.22;;;0.40;99.90;;;;;;6224693;22;20020;-95
2023/01/20 02:41:04;;;;;;;6.22;2.67;;;0.40;99.90;;;;;;6277032;22;20064;-87
2023/01/20 02:43:48;;;;;;;6.60;3.00;;;0.40;99.90;;;;;;6224901;22;20016;-93
2023/01/20 02:46:25;;;;;;;6.45;2.78;;;0.40;99.90;;;;;;6250118;22;20019;-89
2023/01/20 02:49:13;;;;;;;6.60;2.90;;;0.40;99.90;;;;;;6277001;22;20022;-86
2023/01/20 02:51:53;;;;;;;6.78;2.92;;;0.40;99.90;;;;;;6224652;22;20448;-88
2023/01/20 02:54:20;;;;;;;7.30;2.80;;;0.40;99.90;;;;;;6224679;22;20019;-86
2023/01/20 02:56:48;;;;;;;9.23;3.30;;;0.30;99.90;;;;;;6250034;22;20066;-88
2023/01/20 02:59:18;;;;;;;6.68;2.67;;;0.30;99.90;;;;;;6277036;22;20449;-87
2023/01/20 03:01:53;;;;;;;8.48;3.20;;;0.40;99.90;;;;;;6249858;22;20027;-87
2023/01/20 03:04:26;;;;;;;6.75;2.75;;;0.30;99.90;;;;;;6275630;22;20016;-93
2023/01/20 03:07:12;;;;;;;7.78;2.92;;;0.30;99.90;;;;;;6225558;22;20012;-88
2023/01/20 03:09:47;;;;;;;8.20;3.13;;;0.30;99.90;;;;;;6199533;22;20023;-91
2023/01/20 03:12:24;;;;;;;7.35;3.33;;;0.30;99.90;;;;;;6224608;22;20023;-88
2023/01/20 03:14:51;;;;;;;8.20;3.42;;;0.30;99.90;;;;;;6224578;22;20016;-88
2023/01/20 03:18:03;;;;;;;7.75;3.05;;;0.30;99.90;;;;;;6200326;22;20011;-94
2023/01/20 03:20:41;;;;;;;7.97;3.78;;;0.40;99.90;;;;;;6250292;22;20012;-91
2023/01/20 03:23:07;;;;;;;9.07;3.75;;;0.40;99.90;;;;;;6224693;22;20019;-88
2023/01/20 03:25:33;;;;;;;8.23;3.38;;;0.50;99.90;;;;;;6175007;22;20105;-93
2023/01/20 03:27:59;;;;;;;8.20;3.27;;;0.40;99.90;;;;;;6224906;22;20043;-89
2023/01/20 03:30:25;;;;;;;7.68;3.35;;;0.40;99.90;;;;;;6224899;22;20425;-88
2023/01/20 03:32:51;;;;;;;8.65;3.88;;;0.40;99.90;;;;;;6199710;22;20016;-88
2023/01/20 03:35:39;;;;;;;8.05;3.58;;;0.40;99.90;;;;;;6225518;22;20095;-88
2023/01/20 03:38:05;;;;;;;9.38;4.20;;;0.50;99.90;;;;;;6224812;22;20085;-91
2023/01/20 03:40:45;;;;;;;8.63;3.97;;;0.50;99.90;;;;;;6224606;22;20019;-88
2023/01/20 03:43:35;;;;;;;10.00;3.90;;;0.50;99.90;;;;;;6249822;22;20345;-87
2023/01/20 03:52:52;;;;;;;9.55;4.28;;;0.50;99.90;;;;;;6251412;22;20022;-88
2023/01/20 03:55:41;;;;;;;10.68;4.40;;;0.50;99.90;;;;;;6226700;22;20050;-90
2023/01/20 03:58:22;;;;;;;11.63;5.07;;;0.50;99.90;;;;;;6226810;22;20433;-90
2023/01/20 04:00:50;;;;;;;11.63;5.60;;;0.60;99.90;;;;;;6226838;22;20015;-89
2023/01/20 04:03:25;;;;;;;11.00;4.72;;;0.60;99.90;;;;;;6201992;22;20510;-90
2023/01/20 04:05:51;;;;;;;11.60;4.78;;;0.60;99.90;;;;;;6244000;22;20012;-91
2023/01/20 04:08:21;;;;;;;12.18;5.03;;;0.60;99.90;;;;;;6226960;22;20445;-86
2023/01/20 04:10:49;;;;;;;11.48;5.10;;;0.60;99.90;;;;;;6226877;22;20015;-94
2023/01/20 04:13:15;;;;;;;11.02;5.43;;;0.60;99.90;;;;;;6226557;22;20448;-91
2023/01/20 04:15:43;;;;;;;10.83;4.73;;;0.60;99.90;;;;;;6226492;22;20027;-90
2023/01/20 04:18:17;;;;;;;13.05;5.53;;;0.60;99.90;;;;;;6226700;22;20015;-96
2023/01/20 04:21:15;;;;;;;13.65;5.53;;;0.60;99.90;;;;;;6227324;22;20041;-96
2023/01/20 04:24:19;;;;;;;9.80;4.43;;;0.60;99.90;;;;;;6226453;22;20020;-93
2023/01/20 04:26:45;;;;;;;11.43;5.15;;;0.70;99.90;;;;;;6226430;22;20012;-89
2023/01/20 04:29:11;;;;;;;13.02;5.13;;;0.60;99.90;;;;;;6225795;22;20471;-87
2023/01/20 04:31:37;;;;;;;11.50;4.93;;;0.60;99.90;;;;;;6225777;22;20095;-92
2023/01/20 04:34:21;;;;;;;11.73;5.18;;;0.60;99.90;;;;;;6201002;22;20099;-89
2023/01/20 04:36:46;;;;;;;12.48;5.05;;;0.60;99.90;;;;;;6226604;22;20020;-94
2023/01/20 04:39:12;;;;;;;12.15;4.75;;;0.70;99.90;;;;;;6226211;22;20015;-88
2023/01/20 04:41:38;;;;;;;11.30;4.85;;;0.70;99.90;;;;;;6225793;22;20340;-90
2023/01/20 04:44:04;;;;;;;11.90;4.55;;;0.60;99.90;;;;;;6225716;22;20016;-86
2023/01/20 04:46:30;;;;;;;11.35;5.13;;;0.70;99.90;;;;;;6225792;22;20012;-88
2023/01/20 04:48:55;;;;;;;11.43;5.53;;;0.70;99.90;;;;;;6225955;22;20091;-89
2023/01/20 04:51:32;;;;;;;13.25;4.72;;;0.60;99.90;;;;;;6227068;22;20011;-86
2023/01/20 04:53:58;;;;;;;12.55;5.00;;;0.60;99.90;;;;;;6225763;22;20020;-86
2023/01/20 04:56:25;;;;;;;11.30;4.90;;;0.70;99.90;;;;;;6225616;22;20018;-86
2023/01/20 04:58:51;;;;;;;12.23;4.57;;;0.70;99.90;;;;;;6225779;22;20023;-92
2023/01/20 05:01:42;;;;;;;12.30;4.60;;;0.60;99.90;;;;;;6225665;22;20008;-88
2023/01/20 05:04:20;;;;;;;11.38;5.03;;;0.60;99.90;;;;;;6226172;22;20019;-93
2023/01/20 05:06:45;;;;;;;14.90;4.78;;;0.60;99.90;;;;;;6242348;22;20099;-91
2023/01/20 05:09:15;;;;;;;12.45;4.57;;;0.60;99.90;;;;;;6251495;22;20020;-86
2023/01/20 05:11:43;;;;;;;12.98;4.72;;;0.60;99.90;;;;;;6278541;22;20077;-92
2023/01/20 05:14:12;;;;;;;10.90;4.45;;;0.60;99.90;;;;;;6278692;22;20023;-95
2023/01/20 05:16:38;;;;;;;12.07;4.70;;;0.60;99.90;;;;;;6276822;22;20019;-90
2023/01/20 05:19:19;;;;;;;11.38;5.03;;;0.60;99.90;;;;;;6279075;22;20015;-91
2023/01/20 05:21:45;;;;;;;11.52;4.13;;;0.60;99.90;;;;;;6250901;22;20090;-85
2023/01/20 05:24:11;;;;;;;10.48;3.88;;;0.60;99.90;;;;;;6251203;22;20534;-88
2023/01/20 05:26:36;;;;;;;11.43;4.57;;;0.60;99.90;;;;;;6276451;22;20022;-86
2023/01/20 05:29:22;;;;;;;10.57;3.83;;;0.70;99.90;;;;;;6251319;22;20441;-89
2023/01/20 05:32:35;;;;;;;10.90;4.90;;;0.60;99.90;;;;;;6251218;22;20011;-87
2023/01/20 05:35:22;;;;;;;12.43;4.22;;;0.60;99.90;;;;;;6276677;22;20102;-95
2023/01/20 05:37:53;;;;;;;10.27;3.95;;;0.50;99.90;;;;;;6251015;22;20050;-93
2023/01/20 05:40:19;;;;;;;12.27;4.80;;;0.50;99.90;;;;;;6250985;22;20051;-89
2023/01/20 05:42:44;;;;;;;11.77;4.53;;;0.50;99.90;;;;;;6225784;22;20042;-91
2023/01/20 05:45:10;;;;;;;12.15;5.15;;;0.50;99.90;;;;;;6250837;22;20348;-90
2023/01/20 05:47:36;;;;;;;9.68;3.97;;;0.50;99.90;;;;;;6251464;22;20015;-91
2023/01/20 05:50:20;;;;;;;13.18;4.80;;;0.50;99.90;;;;;;6251875;22;20015;-89
2023/01/20 05:52:46;;;;;;;12.23;4.38;;;0.50;99.90;;;;;;6251147;22;20022;-92
2023/01/20 05:55:11;;;;;;;14.15;4.97;;;0.50;99.90;;;;;;6250942;22;20016;-96
2023/01/20 05:57:37;;;;;;;10.73;4.47;;;0.50;99.90;;;;;;6250923;22;20012;-91
2023/01/20 06:00:49;;;;;;;12.98;5.05;;;0.50;99.90;;;;;;6250952;22;20018;-89
2023/01/20 06:03:52;;;;;;;10.27;3.55;;;0.40;99.90;;;;;;6251402;22;20055;-87
2023/01/20 06:06:18;;;;;;;11.07;4.65;;;0.50;99.90;;;;;;6251576;22;20349;-85
2023/01/20 06:08:45;;;;;;;13.02;4.57;;;0.40;99.90;;;;;;6250791;22;20062;-91
2023/01/20 06:11:12;;;;;;;11.48;4.55;;;0.50;99.90;;;;;;6250328;22;20094;-94
2023/01/20 06:13:38;;;;;;;12.07;5.07;;;0.40;99.90;;;;;;6248769;22;20468;-90
2023/01/20 06:16:05;;;;;;;13.27;5.07;;;0.40;99.90;;;;;;6249743;22;20102;-86
2023/01/20 06:18:32;;;;;;;11.05;4.30;;;0.40;99.90;;;;;;6249041;22;20157;-90
2023/01/20 06:20:58;;;;;;;11.65;4.93;;;0.40;99.90;;;;;;6276740;22;20051;-92
2023/01/20 06:23:25;;;;;;;13.15;4.93;;;0.40;99.90;;;;;;6249730;22;20089;-94
2023/01/20 06:25:59;;;;;;;11.35;4.78;;;0.40;99.90;;;;;;6275781;22;20051;-85
2023/01/20 06:28:24;;;;;;;12.52;4.47;;;0.50;99.90;;;;;;6275817;22;20103;-91
2023/01/20 06:30:50;;;;;;;14.65;5.20;;;0.40;99.90;;;;;;6250467;22;20461;-85
2023/01/20 06:33:16;;;;;;;12.07;4.65;;;0.40;99.90;;;;;;6275745;22;20467;-88
2023/01/20 06:35:41;;;;;;;14.17;5.23;;;0.50;99.90;;;;;;6225531;22;20016;-90
2023/01/20 06:38:07;;;;;;;13.30;5.07;;;0.40;99.90;;;;;;6250568;22;20066;-92
2023/01/20 06:40:33;;;;;;;11.43;4.70;;;0.40;99.90;;;;;;6250590;22;20016;-90
2023/01/20 06:42:58;;;;;;;12.17;4.97;;;0.40;99.90;;;;;;6278823;22;20130;-90
2023/01/20 06:45:24;;;;;;;14.13;5.75;;;0.40;99.90;;;;;;6250216;22;20058;-89
2023/01/20 06:47:50;;;;;;;13.80;5.40;;;0.40;99.90;;;;;;6275945;22;20102;-87
2023/01/20 06:50:16;;;;;;;12.68;4.90;;;0.40;99.90;;;;;;6250176;22;20012;-91
2023/01/20 06:52:42;;;;;;;14.98;5.28;;;0.40;99.90;;;;;;6250275;22;20026;-93
2023/01/20 06:55:07;;;;;;;12.65;5.03;;;0.40;99.90;;;;;;6275721;22;20333;-89
2023/01/20 06:57:33;;;;;;;14.53;5.60;;;0.40;99.90;;;;;;6249671;22;20019;-88
2023/01/20 06:59:59;;;;;;;11.05;5.00;;;0.40;99.90;;;;;;6275881;22;20065;-95
2023/01/20 07:02:25;;;;;;;14.77;5.20;;;0.40;99.90;;;;;;6276094;22;20026;-92
2023/01/20 07:04:52;;;;;;;13.95;6.05;;;0.40;99.90;;;;;;6249829;22;20028;-87
2023/01/20 07:07:17;;;;;;;12.27;4.63;;;0.40;99.90;;;;;;6275598;22;20019;-90
2023/01/20 07:09:43;;;;;;;19.92;8.50;;;0.40;99.90;;;;;;6199857;22;20023;-90
2023/01/20 07:12:09;;;;;;;18.58;6.47;;;0.50;99.90;;;;;;6250101;22;20020;-87
2023/01/20 07:14:34;;;;;;;24.00;8.35;;;0.50;99.90;;;;;;6250140;22;20025;-93
2023/01/20 07:17:00;;;;;;;13.48;5.32;;;0.50;99.90;;;;;;6250088;22;20024;-89
2023/01/20 07:19:26;;;;;;;14.73;6.37;;;0.50;99.90;;;;;;6249998;22;20011;-90
2023/01/20 07:21:52;;;;;;;17.97;7.03;;;0.50;99.90;;;;;;6277021;22;20019;-87
2023/01/20 07:24:17;;;;;;;17.00;7.30;;;0.50;99.90;;;;;;6249850;22;20020;-90
2023/01/20 07:26:43;;;;;;;18.05;7.35;;;0.50;99.90;;;;;;6250207;22;20027;-86
2023/01/20 07:29:09;;;;;;;16.92;6.68;;;0.50;99.90;;;;;;6275538;22;20016;-90
2023/01/20 07:31:34;;;;;;;15.35;5.55;;;0.50;99.90;;;;;;6224462;22;20026;-93
2023/01/20 07:34:00;;;;;;;15.43;6.68;;;0.50;99.90;;;;;;6275437;22;20044;-90
2023/01/20 07:36:26;;;;;;;14.70;6.23;;;0.50;99.90;;;;;;6250166;22;20106;-89
2023/01/20 07:38:53;;;;;;;15.50;7.15;;;0.40;99.90;;;;;;6250295;22;20051;-88
2023/01/20 07:41:19;;;;;;;22.63;12.10;;;0.40;99.90;;;;;;6275666;22;20023;-87
2023/01/20 07:43:47;;;;;;;39.25;27.35;;;0.40;99.90;;;;;;6275617;22;20461;-94
2023/01/20 07:46:13;;;;;;;42.17;32.08;;;0.40;99.90;;;;;;6276933;22;20016;-92
2023/01/20 07:48:39;;;;;;;13.52;6.28;;;0.40;99.90;;;;;;6250165;22;20015;-91
2023/01/20 07:51:08;;;;;;;13.00;5.85;;;0.40;99.90;;;;;;6250365;22;20022;-92
2023/01/20 07:53:48;;;;;;;14.60;6.03;;;0.40;99.90;;;;;;6250190;22;20020;-89
2023/01/20 07:56:22;;;;;;;15.25;6.38;;;0.40;99.90;;;;;;6250359;22;20015;-90
2023/01/20 07:58:49;;;;;;;16.05;6.57;;;0.50;99.90;;;;;;6250192;22;20015;-88
2023/01/20 08:01:30;;;;;;;14.25;5.68;;;0.50;99.90;;;;;;6250143;22;20054;-91
2023/01/20 08:03:56;;;;;;;14.90;6.10;;;0.50;99.90;;;;;;6250208;22;20019;-92
2023/01/20 08:06:24;;;;;;;15.70;6.65;;;0.40;99.90;;;;;;6250155;22;20019;-92
2023/01/20 08:08:50;;;;;;;13.93;5.70;;;0.50;99.90;;;;;;6224925;22;20020;-90
2023/01/20 08:11:18;;;;;;;13.73;5.40;;;0.50;99.90;;;;;;6250279;22;20016;-91
2023/01/20 08:13:43;;;;;;;14.95;6.40;;;0.50;99.90;;;;;;6249963;22;20023;-89
2023/01/20 08:16:12;;;;;;;14.75;5.68;;;0.50;99.90;;;;;;6224783;22;20019;-91
2023/01/20 08:18:38;;;;;;;18.80;6.57;;;0.50;99.90;;;;;;6250178;22;20016;-92
2023/01/20 08:21:07;;;;;;;17.17;7.65;;;0.50;99.90;;;;;;6250343;22;20019;-91
2023/01/20 08:23:36;;;;;;;17.15;6.85;;;0.50;99.90;;;;;;6250094;22;20020;-92
2023/01/20 08:26:04;;;;;;;17.33;6.60;;;0.50;99.90;;;;;;6250019;22;20089;-91
2023/01/20 08:28:31;;;;;;;18.80;7.35;;;0.50;99.90;;;;;;6250033;22;20043;-91
2023/01/20 08:31:12;;;;;;;16.45;6.75;;;0.60;99.90;;;;;;6250045;22;20045;-90
2023/01/20 08:33:41;;;;;;;15.82;6.07;;;0.60;99.90;;;;;;6250132;22;20019;-94
2023/01/20 08:36:30;;;;;;;18.15;6.40;;;0.60;99.90;;;;;;6234652;22;20020;-93
2023/01/20 08:38:58;;;;;;;15.43;6.32;;;0.60;99.90;;;;;;6221308;23;20449;-93
2023/01/20 08:41:37;;;;;;;14.45;5.97;;;0.60;99.90;;;;;;6195967;23;20020;-93
2023/01/20 08:44:05;;;;;;;15.35;6.32;;;0.60;99.90;;;;;;6196203;23;20098;-93
2023/01/20 08:46:31;;;;;;;18.30;7.15;;;0.60;99.90;;;;;;6195908;23;20023;-93
2023/01/20 08:48:57;;;;;;;16.75;6.60;;;0.70;99.90;;;;;;6195978;23;20016;-94
2023/01/20 08:51:26;;;;;;;18.60;6.85;;;0.70;99.90;;;;;;6221257;23;20019;-91
2023/01/20 08:53:52;;;;;;;17.55;7.95;;;0.70;99.90;;;;;;6220922;23;20020;-87
2023/01/20 08:56:18;;;;;;;14.07;6.13;;;0.70;99.90;;;;;;6170863;23;20034;-87
2023/01/20 08:58:44;;;;;;;19.42;8.13;;;0.70;99.90;;;;;;6221194;23;20055;-91
2023/01/20 09:01:12;;;;;;;18.00;7.07;;;0.70;99.90;;;;;;6220826;23;20030;-86
2023/01/20 09:03:38;;;;;;;14.80;6.53;;;0.70;99.90;;;;;;6220617;23;20054;-93
2023/01/20 09:06:05;;;;;;;20.73;7.10;;;0.70;99.90;;;;;;6221228;23;20016;-89
2023/01/20 09:08:31;;;;;;;17.58;7.38;;;0.70;99.90;;;;;;6247641;23;20349;-87
2023/01/20 09:11:08;;;;;;;19.17;7.70;;;0.80;99.90;;;;;;6220917;23;20106;-94
2023/01/20 09:13:34;;;;;;;19.20;7.72;;;0.80;99.90;;;;;;6196109;23;20023;-91
2023/01/20 09:16:00;;;;;;;18.70;7.57;;;0.80;99.90;;;;;;6171185;23;20068;-90
2023/01/20 09:18:26;;;;;;;17.83;7.97;;;0.80;99.90;;;;;;6171228;23;20075;-91
2023/01/20 09:20:51;;;;;;;18.73;7.18;;;0.80;99.90;;;;;;6171054;23;20512;-95
2023/01/20 09:23:17;;;;;;;17.98;6.80;;;0.80;99.90;;;;;;6220698;23;20024;-92
2023/01/20 09:25:43;;;;;;;20.13;7.30;;;0.80;99.90;;;;;;6220701;23;20449;-90
2023/01/20 09:28:09;;;;;;;19.30;7.85;;;0.80;99.90;;;;;;6196002;23;20362;-89
2023/01/20 09:30:34;;;;;;;19.42;7.47;;;0.80;99.90;;;;;;6195658;23;20020;-96
2023/01/20 09:33:00;;;;;;;21.52;8.50;;;0.80;99.90;;;;;;6221406;23;20441;-85
2023/01/20 09:35:26;;;;;;;22.17;9.23;;;0.80;99.90;;;;;;6222507;22;20027;-93
2023/01/20 09:44:16;;;;;;;18.50;7.75;;;0.90;99.90;;;;;;6250782;22;20019;-88
2023/01/20 09:47:18;;;;;;;21.27;8.07;;;0.90;99.90;;;;;;6250470;22;20024;-91
2023/01/20 09:53:02;;;;;;;21.15;8.48;;;0.90;99.90;;;;;;6250670;22;20019;-92
2023/01/20 09:55:34;;;;;;;20.10;8.77;;;0.90;99.90;;;;;;6228889;22;20007;-88
2023/01/20 09:58:31;;;;;;;19.15;7.43;;;0.90;99.90;;;;;;6250572;22;20015;-87
2023/01/20 10:00:59;;;;;;;18.67;7.40;;;0.90;99.90;;;;;;6225318;22;20026;-91
2023/01/20 10:03:36;;;;;;;19.00;7.57;;;0.90;99.90;;;;;;6251492;22;20102;-89
2023/01/20 10:06:10;;;;;;;20.08;8.88;;;0.90;99.90;;;;;;6251605;22;20073;-87
2023/01/20 10:09:10;;;;;;;19.95;7.90;;;0.90;99.90;;;;;;6251207;22;20440;-88
2023/01/20 10:11:42;;;;;;;17.75;7.50;;;0.90;99.90;;;;;;6251009;22;20020;-90
2023/01/20 10:14:29;;;;;;;20.95;8.05;;;0.90;99.90;;;;;;6251479;22;20490;-87
2023/01/20 10:17:00;;;;;;;20.17;7.82;;;0.90;99.90;;;;;;6251757;22;20015;-90
2023/01/20 10:19:34;;;;;;;19.63;8.32;;;0.90;99.90;;;;;;6250606;22;20022;-86
2023/01/20 10:22:12;;;;;;;20.80;9.10;;;0.90;99.90;;;;;;6226740;22;20595;-91
2023/01/20 10:24:57;;;;;;;;;;;1.00;99.90;;;;;;6228038;22;20027;-87
2023/01/20 10:27:27;;;;;;;19.27;7.22;;;1.00;99.90;;;;;;6212524;22;19926;-96
2023/01/20 10:30:13;;;;;;;19.00;7.32;;;1.00;99.90;;;;;;6225539;22;20102;-89
2023/01/20 10:32:56;;;;;;;22.02;8.32;;;1.00;99.90;;;;;;6225209;22;20020;-94
2023/01/20 10:35:25;;;;;;;18.55;7.50;;;1.00;99.90;;;;;;6226878;22;20098;-96
2023/01/20 10:37:52;;;;;;;19.70;7.32;;;1.10;99.90;;;;;;6228317;22;20023;-92
2023/01/20 10:40:39;;;;;;;23.00;9.80;;;1.10;99.90;;;;;;6257512;22;20012;-87
2023/01/20 10:43:31;;;;;;;21.13;7.35;;;1.10;99.90;;;;;;6233487;22;20031;-88
2023/01/20 10:45:57;;;;;;;22.35;7.70;;;1.10;99.90;;;;;;6232362;22;20011;-94
2023/01/20 10:48:40;;;;;;;18.63;7.38;;;1.10;99.90;;;;;;6234343;22;20026;-90
2023/01/20 10:51:21;;;;;;;18.77;8.35;;;1.10;99.90;;;;;;6292314;22;20020;-94
2023/01/20 10:54:45;;;;;;;22.58;8.90;;;1.10;99.90;;;;;;6263745;22;20045;-93
2023/01/20 10:57:14;;;;;;;20.42;8.13;;;1.10;99.90;;;;;;6073881;23;20022;-93
2023/01/20 10:59:50;;;;;;;24.58;9.10;;;1.10;99.90;;;;;;6203013;22;20016;-93
2023/01/20 11:02:30;;;;;;;24.08;9.32;;;1.10;99.90;;;;;;6238649;22;20012;-89
2023/01/20 11:05:22;;;;;;;20.30;8.02;;;1.10;99.90;;;;;;6260812;22;20518;-88
2023/01/20 11:10:37;;;;;;;25.90;10.40;;;1.10;99.90;;;;;;6318341;22;20022;-88
2023/01/20 11:13:03;;;;;;;27.23;8.23;;;1.10;99.90;;;;;;6226006;22;20024;-86
2023/01/20 11:15:36;;;;;;;19.58;7.90;;;1.10;99.90;;;;;;6235966;22;20023;-89
2023/01/20 11:20:37;;;;;;;20.80;8.40;;;1.10;99.90;;;;;;6296252;22;20011;-88
2023/01/20 11:23:03;;;;;;;20.30;7.82;;;1.10;99.90;;;;;;6243800;22;20038;-92
2023/01/20 11:25:28;;;;;;;21.52;8.57;;;1.10;99.90;;;;;;6232275;22;20128;-92
2023/01/20 11:27:54;;;;;;;21.02;7.97;;;1.20;99.90;;;;;;6213938;22;20020;-93
2023/01/20 11:30:31;;;;;;;20.03;7.73;;;1.20;99.90;;;;;;6203327;22;20016;-95
2023/01/20 11:33:27;;;;;;;19.27;7.88;;;1.20;99.90;;;;;;6226129;22;20058;-96
2023/01/20 11:36:17;;;;;;;20.63;8.40;;;1.20;99.90;;;;;;6175837;22;20015;-93
2023/01/20 11:38:46;;;;;;;24.23;10.10;;;1.30;99.90;;;;;;6224664;22;20020;-93
2023/01/20 11:41:25;;;;;;;21.55;9.00;;;1.20;99.90;;;;;;6226267;22;20065;-95
2023/01/20 11:43:54;;;;;;;25.95;9.15;;;1.20;99.90;;;;;;6251001;22;20047;-90
2023/01/20 11:46:27;;;;;;;21.55;8.13;;;1.20;99.90;;;;;;6224795;22;20087;-93
2023/01/20 11:49:15;;;;;;;22.23;7.72;;;1.20;99.90;;;;;;6224918;22;20022;-95
2023/01/20 11:51:53;;;;;;;26.05;9.15;;;1.10;99.90;;;;;;6240615;22;20045;-88
2023/01/20 11:54:27;;;;;;;21.23;7.97;;;1.10;99.90;;;;;;6267726;22;20023;-89
2023/01/20 11:57:15;;;;;;;21.77;8.82;;;1.20;99.90;;;;;;6258124;22;20074;-90
2023/01/20 12:02:26;;;;;;;21.13;8.43;;;1.20;99.90;;;;;;6311086;22;20444;-89
2023/01/20 12:05:04;;;;;;;20.88;8.55;;;1.20;99.90;;;;;;6258210;22;20031;-86
2023/01/20 12:07:49;;;;;;;23.05;8.48;;;1.20;99.90;;;;;;6263588;22;20011;-87
2023/01/20 12:10:21;;;;;;;20.85;8.55;;;1.10;99.90;;;;;;6265961;22;20019;-87
2023/01/20 12:13:11;;;;;;;20.77;7.43;;;1.20;99.90;;;;;;6267466;22;20336;-86
2023/01/20 12:16:00;;;;;;;21.75;8.20;;;1.20;99.90;;;;;;6262787;22;20379;-86
2023/01/20 12:18:41;;;;;;;22.10;9.18;;;1.20;99.90;;;;;;6257476;22;20027;-91
2023/01/20 12:21:18;;;;;;;23.95;8.52;;;1.20;99.90;;;;;;6260377;22;20459;-93
2023/01/20 12:24:08;;;;;;;21.48;8.98;;;1.30;99.90;;;;;;6268010;22;20142;-87
2023/01/20 12:26:35;;;;;;;22.33;8.70;;;1.30;99.90;;;;;;6261445;22;20533;-89
2023/01/20 12:29:23;;;;;;;20.02;7.65;;;1.30;99.90;;;;;;6258042;22;20019;-91
2023/01/20 12:31:49;;;;;;;20.15;7.15;;;1.20;99.90;;;;;;6260002;22;20015;-89
2023/01/20 12:34:23;;;;;;;21.08;8.88;;;1.30;99.90;;;;;;6266839;22;20090;-88
2023/01/20 12:36:57;;;;;;;25.83;8.85;;;1.30;99.90;;;;;;6266067;22;20015;-86
2023/01/20 12:39:41;;;;;;;20.38;8.05;;;1.20;99.90;;;;;;6267551;22;20062;-87
2023/01/20 12:42:22;;;;;;;22.88;8.88;;;1.30;99.90;;;;;;6266810;22;20451;-86
2023/01/20 12:45:03;;;;;;;20.73;8.43;;;1.20;99.90;;;;;;6267707;22;20015;-87
2023/01/20 12:50:44;;;;;;;23.20;8.38;;;1.20;99.90;;;;;;6325165;22;20042;-87
2023/01/20 12:55:48;;;;;;;20.55;7.78;;;1.20;99.90;;;;;;6326257;22;19915;-86
2023/01/20 12:58:13;;;;;;;21.02;8.57;;;1.30;99.90;;;;;;6268514;22;20020;-86
2023/01/20 13:08:24;;;;;;;;;;;1.30;99.90;;;;;;6299901;22;20030;-85
2023/01/20 13:11:18;;;;;;;23.63;9.15;;;1.30;99.90;;;;;;6196697;22;19915;-87
2023/01/20 13:13:54;;;;;;;23.58;9.15;;;1.30;99.90;;;;;;6272664;22;20020;-85
2023/01/20 13:16:59;;;;;;;25.73;8.98;;;1.30;99.90;;;;;;6276163;22;20007;-88
2023/01/20 13:19:29;;;;;;;22.30;8.75;;;1.30;99.90;;;;;;6252107;22;20027;-87
2023/01/20 13:24:31;;;;;;;21.95;8.55;;;1.30;99.90;;;;;;6330683;22;20031;-87
2023/01/20 13:27:26;;;;;;;20.65;9.23;;;1.30;99.90;;;;;;6307471;22;20019;-86
2023/01/20 13:30:03;;;;;;;24.95;8.85;;;1.30;99.90;;;;;;6308180;22;20011;-86
2023/01/20 13:32:47;;;;;;;22.10;9.15;;;1.30;99.90;;;;;;6247747;22;20016;-86
2023/01/20 13:36:13;;;;;;;18.52;8.20;;;1.30;99.90;;;;;;6328907;22;20008;-87
2023/01/20 13:38:39;;;;;;;22.27;8.32;;;1.30;99.90;;;;;;6258309;22;20019;-91
2023/01/20 13:41:05;;;;;;;18.63;7.30;;;1.30;99.90;;;;;;6235759;22;20022;-90
2023/01/20 13:43:44;;;;;;;21.67;8.40;;;1.30;99.90;;;;;;6236926;22;20453;-86
2023/01/20 13:49:33;;;;;;;16.88;7.18;;;1.40;99.90;;;;;;6342347;22;20011;-85
2023/01/20 13:51:59;;;;;;;19.52;7.47;;;1.40;99.90;;;;;;6304581;22;20027;-85
2023/01/20 13:54:27;;;;;;;18.70;7.05;;;1.40;99.90;;;;;;6300488;22;20026;-85
2023/01/20 13:57:19;;;;;;;20.27;7.63;;;1.40;99.90;;;;;;6269479;22;20045;-84
2023/01/20 13:59:45;;;;;;;19.85;8.35;;;1.40;99.90;;;;;;6285229;22;20091;-85
2023/01/20 14:04:46;;;;;;;18.92;7.43;;;1.40;99.90;;;;;;6326122;22;20011;-87
2023/01/20 14:07:29;;;;;;;22.00;8.25;;;1.40;99.90;;;;;;6300530;22;20012;-91
2023/01/20 14:09:57;;;;;;;20.83;7.88;;;1.40;99.90;;;;;;6297013;22;20019;-86
2023/01/20 14:12:25;;;;;;;20.13;7.93;;;1.40;99.90;;;;;;6251313;22;20006;-88
2023/01/20 14:14:51;;;;;;;20.55;6.97;;;1.40;99.90;;;;;;6276008;22;20015;-85